Lowell, Maine
Current Conditions -  °F | °C
As of 4:40 PM on Wednesday 26 Nov 2014 (Local Time) from KMLT Reporting Station
Light Snow Light Snow  
Wind Chill: 26°   Ceiling: 1800
Heat Index: 32°   Visibility: 1.2mi
Dew Point: 29°   Wind: 7mph
Humidity: 88%   Direction: 90°E
Pressure: 30.17"   Gusts: NA
Location:  45.2702°N, 68.597°W
Report Text: KMLT 262140Z AUTO 09006KT 1 1/4SM -SN BR OVC018 00/M02 A3017 RMK AO2 SNB02 P0000 T00001017
Loading
Personal Weather Stations






























Interactive Weather Map New forecast layout! Learn more

10-Day Weather Forecast

Advertisements
Track Severe Weather on mobile